sensor_id;sensor_type;location;lat;lon;timestamp;P1;durP1;ratioP1;P2;durP2;ratioP2
72649;SDS011;61467;50.674;4.618;2022-07-05T00:01:20;5.60;;;1.90;;
72649;SDS011;61467;50.674;4.618;2022-07-05T00:03:47;7.27;;;1.83;;
72649;SDS011;61467;50.674;4.618;2022-07-05T00:06:13;5.28;;;1.65;;
72649;SDS011;61467;50.674;4.618;2022-07-05T00:08:41;5.15;;;1.85;;
72649;SDS011;61467;50.674;4.618;2022-07-05T00:11:08;5.05;;;1.80;;
72649;SDS011;61467;50.674;4.618;2022-07-05T00:13:35;5.15;;;1.90;;
72649;SDS011;61467;50.674;4.618;2022-07-05T00:16:02;6.47;;;1.87;;
72649;SDS011;61467;50.674;4.618;2022-07-05T00:18:28;6.80;;;2.22;;
72649;SDS011;61467;50.674;4.618;2022-07-05T00:20:55;5.55;;;1.88;;
72649;SDS011;61467;50.674;4.618;2022-07-05T00:23:22;7.35;;;2.00;;
72649;SDS011;61467;50.674;4.618;2022-07-05T00:25:50;8.00;;;2.42;;
72649;SDS011;61467;50.674;4.618;2022-07-05T00:28:17;5.30;;;2.10;;
72649;SDS011;61467;50.674;4.618;2022-07-05T00:30:44;5.28;;;1.90;;
72649;SDS011;61467;50.674;4.618;2022-07-05T00:33:10;5.85;;;1.85;;
72649;SDS011;61467;50.674;4.618;2022-07-05T00:35:37;5.07;;;2.20;;
72649;SDS011;61467;50.674;4.618;2022-07-05T00:38:04;5.97;;;1.85;;
72649;SDS011;61467;50.674;4.618;2022-07-05T00:40:30;4.67;;;1.80;;
72649;SDS011;61467;50.674;4.618;2022-07-05T00:42:58;4.82;;;1.90;;
72649;SDS011;61467;50.674;4.618;2022-07-05T00:45:25;5.13;;;2.20;;
72649;SDS011;61467;50.674;4.618;2022-07-05T00:47:52;5.60;;;2.10;;
72649;SDS011;61467;50.674;4.618;2022-07-05T00:50:19;5.63;;;2.00;;
72649;SDS011;61467;50.674;4.618;2022-07-05T00:52:46;6.00;;;2.63;;
72649;SDS011;61467;50.674;4.618;2022-07-05T00:55:12;5.60;;;2.00;;
72649;SDS011;61467;50.674;4.618;2022-07-05T00:57:39;6.07;;;2.30;;
72649;SDS011;61467;50.674;4.618;2022-07-05T01:00:08;5.00;;;2.28;;
72649;SDS011;61467;50.674;4.618;2022-07-05T01:02:35;6.05;;;2.13;;
72649;SDS011;61467;50.674;4.618;2022-07-05T01:05:03;5.90;;;2.33;;
72649;SDS011;61467;50.674;4.618;2022-07-05T01:07:30;6.95;;;2.28;;
72649;SDS011;61467;50.674;4.618;2022-07-05T01:09:57;5.88;;;2.40;;
72649;SDS011;61467;50.674;4.618;2022-07-05T01:12:23;6.05;;;2.22;;
72649;SDS011;61467;50.674;4.618;2022-07-05T01:14:50;5.18;;;1.95;;
72649;SDS011;61467;50.674;4.618;2022-07-05T01:17:20;5.23;;;2.10;;
72649;SDS011;61467;50.674;4.618;2022-07-05T01:19:46;6.90;;;1.90;;
72649;SDS011;61467;50.674;4.618;2022-07-05T01:22:15;6.50;;;2.55;;
72649;SDS011;61467;50.674;4.618;2022-07-05T01:24:45;5.57;;;2.10;;
72649;SDS011;61467;50.674;4.618;2022-07-05T01:27:13;5.18;;;2.17;;
72649;SDS011;61467;50.674;4.618;2022-07-05T01:29:40;5.77;;;2.30;;
72649;SDS011;61467;50.674;4.618;2022-07-05T01:32:07;6.72;;;2.13;;
72649;SDS011;61467;50.674;4.618;2022-07-05T01:34:36;5.90;;;2.28;;
72649;SDS011;61467;50.674;4.618;2022-07-05T01:37:04;7.38;;;2.25;;
72649;SDS011;61467;50.674;4.618;2022-07-05T01:39:31;6.47;;;2.05;;
72649;SDS011;61467;50.674;4.618;2022-07-05T01:41:59;6.10;;;2.37;;
72649;SDS011;61467;50.674;4.618;2022-07-05T01:44:26;7.43;;;2.17;;
72649;SDS011;61467;50.674;4.618;2022-07-05T01:46:56;6.63;;;2.60;;
72649;SDS011;61467;50.674;4.618;2022-07-05T01:49:28;5.10;;;2.30;;
72649;SDS011;61467;50.674;4.618;2022-07-05T01:52:02;6.53;;;2.40;;
72649;SDS011;61467;50.674;4.618;2022-07-05T01:54:34;5.43;;;2.20;;
72649;SDS011;61467;50.674;4.618;2022-07-05T01:57:02;6.88;;;2.90;;
72649;SDS011;61467;50.674;4.618;2022-07-05T01:59:31;7.00;;;2.50;;
72649;SDS011;61467;50.674;4.618;2022-07-05T02:01:59;6.10;;;2.35;;
72649;SDS011;61467;50.674;4.618;2022-07-05T02:04:26;7.18;;;2.30;;
72649;SDS011;61467;50.674;4.618;2022-07-05T02:06:54;5.40;;;2.17;;
72649;SDS011;61467;50.674;4.618;2022-07-05T02:09:20;7.38;;;2.40;;
72649;SDS011;61467;50.674;4.618;2022-07-05T02:11:47;5.88;;;2.20;;
72649;SDS011;61467;50.674;4.618;2022-07-05T02:14:15;5.82;;;2.17;;
72649;SDS011;61467;50.674;4.618;2022-07-05T02:16:42;6.97;;;2.40;;
72649;SDS011;61467;50.674;4.618;2022-07-05T02:19:09;6.27;;;2.60;;
72649;SDS011;61467;50.674;4.618;2022-07-05T02:21:35;5.90;;;2.30;;
72649;SDS011;61467;50.674;4.618;2022-07-05T02:24:02;5.45;;;2.53;;
72649;SDS011;61467;50.674;4.618;2022-07-05T02:26:29;7.75;;;2.80;;
72649;SDS011;61467;50.674;4.618;2022-07-05T02:28:56;6.78;;;2.33;;
72649;SDS011;61467;50.674;4.618;2022-07-05T02:31:24;5.17;;;2.33;;
72649;SDS011;61467;50.674;4.618;2022-07-05T02:33:51;8.00;;;2.63;;
72649;SDS011;61467;50.674;4.618;2022-07-05T02:36:18;6.45;;;2.85;;
72649;SDS011;61467;50.674;4.618;2022-07-05T02:38:45;6.55;;;2.80;;
72649;SDS011;61467;50.674;4.618;2022-07-05T02:41:12;6.32;;;3.30;;
72649;SDS011;61467;50.674;4.618;2022-07-05T02:43:39;9.87;;;2.80;;
72649;SDS011;61467;50.674;4.618;2022-07-05T02:46:06;7.85;;;3.17;;
72649;SDS011;61467;50.674;4.618;2022-07-05T02:48:35;9.00;;;3.45;;
72649;SDS011;61467;50.674;4.618;2022-07-05T02:51:03;6.90;;;3.47;;
72649;SDS011;61467;50.674;4.618;2022-07-05T02:53:30;9.50;;;4.00;;
72649;SDS011;61467;50.674;4.618;2022-07-05T02:55:57;7.77;;;3.40;;
72649;SDS011;61467;50.674;4.618;2022-07-05T02:58:23;9.20;;;3.58;;
72649;SDS011;61467;50.674;4.618;2022-07-05T03:00:50;7.13;;;3.63;;
72649;SDS011;61467;50.674;4.618;2022-07-05T03:03:17;8.32;;;3.45;;
72649;SDS011;61467;50.674;4.618;2022-07-05T03:05:45;7.43;;;3.80;;
72649;SDS011;61467;50.674;4.618;2022-07-05T03:08:12;8.80;;;3.60;;
72649;SDS011;61467;50.674;4.618;2022-07-05T03:10:38;6.97;;;3.80;;
72649;SDS011;61467;50.674;4.618;2022-07-05T03:13:05;6.35;;;3.65;;
72649;SDS011;61467;50.674;4.618;2022-07-05T03:15:32;7.45;;;3.65;;
72649;SDS011;61467;50.674;4.618;2022-07-05T03:17:59;6.13;;;3.38;;
72649;SDS011;61467;50.674;4.618;2022-07-05T03:20:26;6.27;;;3.20;;
72649;SDS011;61467;50.674;4.618;2022-07-05T03:22:54;7.20;;;3.83;;
72649;SDS011;61467;50.674;4.618;2022-07-05T03:25:21;11.40;;;4.03;;
72649;SDS011;61467;50.674;4.618;2022-07-05T03:27:47;7.53;;;3.75;;
72649;SDS011;61467;50.674;4.618;2022-07-05T03:30:14;7.10;;;3.30;;
72649;SDS011;61467;50.674;4.618;2022-07-05T03:32:41;7.67;;;3.93;;
72649;SDS011;61467;50.674;4.618;2022-07-05T03:35:07;7.43;;;3.92;;
72649;SDS011;61467;50.674;4.618;2022-07-05T03:37:34;7.15;;;4.00;;
72649;SDS011;61467;50.674;4.618;2022-07-05T03:40:03;6.95;;;3.47;;
72649;SDS011;61467;50.674;4.618;2022-07-05T03:42:30;7.65;;;3.53;;
72649;SDS011;61467;50.674;4.618;2022-07-05T03:44:59;8.40;;;3.37;;
72649;SDS011;61467;50.674;4.618;2022-07-05T03:47:26;7.72;;;3.30;;
72649;SDS011;61467;50.674;4.618;2022-07-05T03:49:53;8.52;;;3.70;;
72649;SDS011;61467;50.674;4.618;2022-07-05T03:52:20;8.13;;;3.80;;
72649;SDS011;61467;50.674;4.618;2022-07-05T03:54:46;7.28;;;3.55;;
72649;SDS011;61467;50.674;4.618;2022-07-05T03:57:14;8.17;;;3.80;;
72649;SDS011;61467;50.674;4.618;2022-07-05T03:59:41;7.97;;;3.83;;
72649;SDS011;61467;50.674;4.618;2022-07-05T04:02:08;8.02;;;3.83;;
72649;SDS011;61467;50.674;4.618;2022-07-05T04:04:34;8.82;;;3.53;;
72649;SDS011;61467;50.674;4.618;2022-07-05T04:07:01;9.48;;;3.65;;
72649;SDS011;61467;50.674;4.618;2022-07-05T04:09:28;8.73;;;3.70;;
72649;SDS011;61467;50.674;4.618;2022-07-05T04:11:54;10.63;;;4.43;;
72649;SDS011;61467;50.674;4.618;2022-07-05T04:14:22;7.30;;;4.05;;
72649;SDS011;61467;50.674;4.618;2022-07-05T04:16:49;9.90;;;3.80;;
72649;SDS011;61467;50.674;4.618;2022-07-05T04:19:17;7.82;;;4.10;;
72649;SDS011;61467;50.674;4.618;2022-07-05T04:21:43;10.20;;;4.03;;
72649;SDS011;61467;50.674;4.618;2022-07-05T04:24:10;6.95;;;3.42;;
72649;SDS011;61467;50.674;4.618;2022-07-05T04:26:37;7.47;;;3.80;;
72649;SDS011;61467;50.674;4.618;2022-07-05T04:29:05;8.13;;;3.83;;
72649;SDS011;61467;50.674;4.618;2022-07-05T04:31:33;8.32;;;4.03;;
72649;SDS011;61467;50.674;4.618;2022-07-05T04:34:00;7.70;;;3.83;;
72649;SDS011;61467;50.674;4.618;2022-07-05T04:36:27;10.05;;;5.55;;
72649;SDS011;61467;50.674;4.618;2022-07-05T04:38:54;7.60;;;4.30;;
72649;SDS011;61467;50.674;4.618;2022-07-05T04:41:20;7.28;;;3.92;;
72649;SDS011;61467;50.674;4.618;2022-07-05T04:43:47;9.05;;;4.43;;
72649;SDS011;61467;50.674;4.618;2022-07-05T04:46:13;8.80;;;4.37;;
72649;SDS011;61467;50.674;4.618;2022-07-05T04:48:42;8.23;;;4.30;;
72649;SDS011;61467;50.674;4.618;2022-07-05T04:51:09;9.38;;;4.70;;
72649;SDS011;61467;50.674;4.618;2022-07-05T04:53:35;9.85;;;4.47;;
72649;SDS011;61467;50.674;4.618;2022-07-05T04:56:02;7.63;;;4.38;;
72649;SDS011;61467;50.674;4.618;2022-07-05T04:58:30;10.60;;;5.03;;
72649;SDS011;61467;50.674;4.618;2022-07-05T05:00:57;8.70;;;4.50;;
72649;SDS011;61467;50.674;4.618;2022-07-05T05:03:23;9.82;;;4.22;;
72649;SDS011;61467;50.674;4.618;2022-07-05T05:05:51;14.10;;;4.70;;
72649;SDS011;61467;50.674;4.618;2022-07-05T05:08:18;9.30;;;4.22;;
72649;SDS011;61467;50.674;4.618;2022-07-05T05:10:45;8.93;;;4.10;;
72649;SDS011;61467;50.674;4.618;2022-07-05T05:13:11;7.90;;;4.50;;
72649;SDS011;61467;50.674;4.618;2022-07-05T05:15:38;9.27;;;4.25;;
72649;SDS011;61467;50.674;4.618;2022-07-05T05:18:05;10.10;;;4.40;;
72649;SDS011;61467;50.674;4.618;2022-07-05T05:20:31;9.13;;;3.97;;
72649;SDS011;61467;50.674;4.618;2022-07-05T05:22:59;8.33;;;3.73;;
72649;SDS011;61467;50.674;4.618;2022-07-05T05:25:26;10.98;;;3.92;;
72649;SDS011;61467;50.674;4.618;2022-07-05T05:27:55;8.27;;;3.97;;
72649;SDS011;61467;50.674;4.618;2022-07-05T05:30:22;7.75;;;3.85;;
72649;SDS011;61467;50.674;4.618;2022-07-05T05:32:49;7.95;;;3.75;;
72649;SDS011;61467;50.674;4.618;2022-07-05T05:35:16;8.33;;;3.57;;
72649;SDS011;61467;50.674;4.618;2022-07-05T05:37:46;9.82;;;4.15;;
72649;SDS011;61467;50.674;4.618;2022-07-05T05:40:15;8.77;;;4.20;;
72649;SDS011;61467;50.674;4.618;2022-07-05T05:42:42;9.40;;;4.03;;
72649;SDS011;61467;50.674;4.618;2022-07-05T05:45:09;8.07;;;3.75;;
72649;SDS011;61467;50.674;4.618;2022-07-05T05:47:42;11.27;;;3.77;;
72649;SDS011;61467;50.674;4.618;2022-07-05T05:50:10;7.63;;;3.75;;
72649;SDS011;61467;50.674;4.618;2022-07-05T05:52:37;9.60;;;3.88;;
72649;SDS011;61467;50.674;4.618;2022-07-05T05:55:04;10.75;;;3.95;;
72649;SDS011;61467;50.674;4.618;2022-07-05T05:57:33;10.02;;;4.10;;
72649;SDS011;61467;50.674;4.618;2022-07-05T06:00:00;8.90;;;3.60;;
72649;SDS011;61467;50.674;4.618;2022-07-05T06:02:27;7.70;;;3.42;;
72649;SDS011;61467;50.674;4.618;2022-07-05T06:04:53;8.10;;;3.65;;
72649;SDS011;61467;50.674;4.618;2022-07-05T06:07:20;10.13;;;3.90;;
72649;SDS011;61467;50.674;4.618;2022-07-05T06:09:46;9.68;;;3.53;;
72649;SDS011;61467;50.674;4.618;2022-07-05T06:12:13;9.80;;;3.93;;
72649;SDS011;61467;50.674;4.618;2022-07-05T06:14:42;11.68;;;4.63;;
72649;SDS011;61467;50.674;4.618;2022-07-05T06:17:08;10.88;;;3.80;;
72649;SDS011;61467;50.674;4.618;2022-07-05T06:19:35;9.55;;;3.17;;
72649;SDS011;61467;50.674;4.618;2022-07-05T06:22:02;8.23;;;4.30;;
72649;SDS011;61467;50.674;4.618;2022-07-05T06:24:28;8.10;;;3.60;;
72649;SDS011;61467;50.674;4.618;2022-07-05T06:26:55;8.75;;;3.65;;
72649;SDS011;61467;50.674;4.618;2022-07-05T06:29:22;9.77;;;4.10;;
72649;SDS011;61467;50.674;4.618;2022-07-05T06:31:50;9.90;;;3.90;;
72649;SDS011;61467;50.674;4.618;2022-07-05T06:34:16;8.90;;;3.70;;
72649;SDS011;61467;50.674;4.618;2022-07-05T06:36:43;11.33;;;3.53;;
72649;SDS011;61467;50.674;4.618;2022-07-05T06:39:10;8.73;;;3.53;;
72649;SDS011;61467;50.674;4.618;2022-07-05T06:41:37;8.77;;;3.67;;
72649;SDS011;61467;50.674;4.618;2022-07-05T06:44:04;9.70;;;4.20;;
72649;SDS011;61467;50.674;4.618;2022-07-05T06:46:30;8.52;;;3.53;;
72649;SDS011;61467;50.674;4.618;2022-07-05T06:48:58;9.20;;;3.70;;
72649;SDS011;61467;50.674;4.618;2022-07-05T06:51:25;10.50;;;3.83;;
72649;SDS011;61467;50.674;4.618;2022-07-05T06:53:52;7.18;;;3.00;;
72649;SDS011;61467;50.674;4.618;2022-07-05T06:56:18;7.80;;;3.22;;
72649;SDS011;61467;50.674;4.618;2022-07-05T06:58:45;7.30;;;2.53;;
72649;SDS011;61467;50.674;4.618;2022-07-05T07:01:11;6.93;;;3.20;;
72649;SDS011;61467;50.674;4.618;2022-07-05T07:03:38;8.05;;;3.05;;
72649;SDS011;61467;50.674;4.618;2022-07-05T07:06:06;8.23;;;3.38;;
72649;SDS011;61467;50.674;4.618;2022-07-05T07:08:33;8.80;;;3.20;;
72649;SDS011;61467;50.674;4.618;2022-07-05T07:11:29;7.80;;;3.08;;
72649;SDS011;61467;50.674;4.618;2022-07-05T07:13:57;8.60;;;3.00;;
72649;SDS011;61467;50.674;4.618;2022-07-05T07:16:24;8.45;;;3.28;;
72649;SDS011;61467;50.674;4.618;2022-07-05T07:18:50;8.15;;;3.35;;
72649;SDS011;61467;50.674;4.618;2022-07-05T07:21:19;8.73;;;3.10;;
72649;SDS011;61467;50.674;4.618;2022-07-05T07:23:45;6.88;;;3.22;;
72649;SDS011;61467;50.674;4.618;2022-07-05T07:26:12;9.70;;;3.80;;
72649;SDS011;61467;50.674;4.618;2022-07-05T07:28:39;9.63;;;3.03;;
72649;SDS011;61467;50.674;4.618;2022-07-05T07:31:05;6.82;;;2.88;;
72649;SDS011;61467;50.674;4.618;2022-07-05T07:33:33;7.57;;;2.22;;
72649;SDS011;61467;50.674;4.618;2022-07-05T07:35:59;6.57;;;2.63;;
72649;SDS011;61467;50.674;4.618;2022-07-05T07:38:27;7.07;;;2.70;;
72649;SDS011;61467;50.674;4.618;2022-07-05T07:40:54;9.38;;;2.45;;
72649;SDS011;61467;50.674;4.618;2022-07-05T07:43:21;7.38;;;2.70;;
72649;SDS011;61467;50.674;4.618;2022-07-05T07:45:47;7.30;;;2.35;;
72649;SDS011;61467;50.674;4.618;2022-07-05T07:48:14;12.05;;;2.83;;
72649;SDS011;61467;50.674;4.618;2022-07-05T07:50:41;6.50;;;2.47;;
72649;SDS011;61467;50.674;4.618;2022-07-05T07:53:08;7.00;;;2.42;;
72649;SDS011;61467;50.674;4.618;2022-07-05T07:55:36;6.75;;;2.30;;
72649;SDS011;61467;50.674;4.618;2022-07-05T07:58:03;10.35;;;2.50;;
72649;SDS011;61467;50.674;4.618;2022-07-05T08:00:30;6.55;;;2.78;;
72649;SDS011;61467;50.674;4.618;2022-07-05T08:02:57;7.67;;;2.40;;
72649;SDS011;61467;50.674;4.618;2022-07-05T08:05:24;16.10;;;2.97;;
72649;SDS011;61467;50.674;4.618;2022-07-05T08:07:51;7.18;;;2.50;;
72649;SDS011;61467;50.674;4.618;2022-07-05T08:10:18;11.30;;;2.30;;
72649;SDS011;61467;50.674;4.618;2022-07-05T08:12:46;7.55;;;1.90;;
72649;SDS011;61467;50.674;4.618;2022-07-05T08:15:12;7.87;;;1.77;;
72649;SDS011;61467;50.674;4.618;2022-07-05T08:17:39;6.78;;;1.90;;
72649;SDS011;61467;50.674;4.618;2022-07-05T08:20:26;6.25;;;1.85;;
72649;SDS011;61467;50.674;4.618;2022-07-05T08:23:10;7.75;;;2.55;;
72649;SDS011;61467;50.674;4.618;2022-07-05T08:25:37;7.82;;;1.92;;
72649;SDS011;61467;50.674;4.618;2022-07-05T08:28:05;6.37;;;2.20;;
72649;SDS011;61467;50.674;4.618;2022-07-05T08:30:31;8.45;;;1.80;;
72649;SDS011;61467;50.674;4.618;2022-07-05T08:32:58;7.07;;;2.45;;
72649;SDS011;61467;50.674;4.618;2022-07-05T08:35:25;6.88;;;2.08;;
72649;SDS011;61467;50.674;4.618;2022-07-05T08:37:52;8.05;;;1.73;;
72649;SDS011;61467;50.674;4.618;2022-07-05T08:40:19;6.47;;;2.10;;
72649;SDS011;61467;50.674;4.618;2022-07-05T08:42:52;8.45;;;2.03;;
72649;SDS011;61467;50.674;4.618;2022-07-05T08:45:22;7.07;;;2.20;;
72649;SDS011;61467;50.674;4.618;2022-07-05T08:47:52;6.15;;;1.60;;
72649;SDS011;61467;50.674;4.618;2022-07-05T08:50:21;7.10;;;2.08;;
72649;SDS011;61467;50.674;4.618;2022-07-05T08:52:49;6.40;;;1.70;;
72649;SDS011;61467;50.674;4.618;2022-07-05T08:55:16;5.90;;;1.85;;
72649;SDS011;61467;50.674;4.618;2022-07-05T08:57:43;6.40;;;2.05;;
72649;SDS011;61467;50.674;4.618;2022-07-05T09:00:11;7.68;;;2.13;;
72649;SDS011;61467;50.674;4.618;2022-07-05T09:02:39;5.32;;;1.77;;
72649;SDS011;61467;50.674;4.618;2022-07-05T09:05:08;6.70;;;1.90;;
72649;SDS011;61467;50.674;4.618;2022-07-05T09:07:38;8.68;;;2.40;;
72649;SDS011;61467;50.674;4.618;2022-07-05T09:10:14;7.10;;;1.85;;
72649;SDS011;61467;50.674;4.618;2022-07-05T09:12:43;7.75;;;1.95;;
72649;SDS011;61467;50.674;4.618;2022-07-05T09:15:10;8.13;;;2.63;;
72649;SDS011;61467;50.674;4.618;2022-07-05T09:17:44;7.47;;;1.63;;
72649;SDS011;61467;50.674;4.618;2022-07-05T09:20:11;7.15;;;1.60;;
72649;SDS011;61467;50.674;4.618;2022-07-05T09:22:43;5.38;;;1.83;;
72649;SDS011;61467;50.674;4.618;2022-07-05T09:25:18;8.98;;;1.83;;
72649;SDS011;61467;50.674;4.618;2022-07-05T09:27:47;11.23;;;2.47;;
72649;SDS011;61467;50.674;4.618;2022-07-05T09:30:23;6.60;;;1.60;;
72649;SDS011;61467;50.674;4.618;2022-07-05T09:33:02;7.50;;;2.25;;
72649;SDS011;61467;50.674;4.618;2022-07-05T09:35:31;7.43;;;1.90;;
72649;SDS011;61467;50.674;4.618;2022-07-05T09:37:58;5.70;;;1.60;;
72649;SDS011;61467;50.674;4.618;2022-07-05T09:40:28;6.45;;;1.35;;
72649;SDS011;61467;50.674;4.618;2022-07-05T09:43:09;6.93;;;1.50;;
72649;SDS011;61467;50.674;4.618;2022-07-05T09:45:37;6.50;;;1.52;;
72649;SDS011;61467;50.674;4.618;2022-07-05T09:48:05;5.97;;;1.45;;
72649;SDS011;61467;50.674;4.618;2022-07-05T09:50:33;6.65;;;1.40;;
72649;SDS011;61467;50.674;4.618;2022-07-05T09:53:02;7.10;;;1.55;;
72649;SDS011;61467;50.674;4.618;2022-07-05T09:55:29;5.43;;;1.43;;
72649;SDS011;61467;50.674;4.618;2022-07-05T09:57:56;4.70;;;1.48;;
72649;SDS011;61467;50.674;4.618;2022-07-05T10:00:23;5.85;;;1.95;;
72649;SDS011;61467;50.674;4.618;2022-07-05T10:02:50;5.85;;;1.45;;
72649;SDS011;61467;50.674;4.618;2022-07-05T10:05:20;6.25;;;1.95;;
72649;SDS011;61467;50.674;4.618;2022-07-05T10:07:48;6.23;;;1.50;;
72649;SDS011;61467;50.674;4.618;2022-07-05T10:10:17;6.03;;;1.50;;
72649;SDS011;61467;50.674;4.618;2022-07-05T10:12:45;6.28;;;1.60;;
72649;SDS011;61467;50.674;4.618;2022-07-05T10:15:14;7.80;;;2.10;;
72649;SDS011;61467;50.674;4.618;2022-07-05T10:17:45;8.10;;;2.20;;
72649;SDS011;61467;50.674;4.618;2022-07-05T10:20:16;6.47;;;1.80;;
72649;SDS011;61467;50.674;4.618;2022-07-05T10:22:47;5.88;;;1.30;;
72649;SDS011;61467;50.674;4.618;2022-07-05T10:25:14;7.65;;;2.80;;
72649;SDS011;61467;50.674;4.618;2022-07-05T10:27:41;7.63;;;2.00;;
72649;SDS011;61467;50.674;4.618;2022-07-05T10:30:08;9.13;;;2.22;;
72649;SDS011;61467;50.674;4.618;2022-07-05T10:32:37;6.40;;;1.80;;
72649;SDS011;61467;50.674;4.618;2022-07-05T10:35:05;6.47;;;1.90;;
72649;SDS011;61467;50.674;4.618;2022-07-05T10:37:34;7.68;;;1.75;;
72649;SDS011;61467;50.674;4.618;2022-07-05T10:40:03;6.78;;;1.80;;
72649;SDS011;61467;50.674;4.618;2022-07-05T10:42:33;6.35;;;2.00;;
72649;SDS011;61467;50.674;4.618;2022-07-05T10:45:24;7.47;;;1.60;;
72649;SDS011;61467;50.674;4.618;2022-07-05T10:50:42;6.93;;;1.60;;
72649;SDS011;61467;50.674;4.618;2022-07-05T10:53:09;7.30;;;1.80;;
72649;SDS011;61467;50.674;4.618;2022-07-05T10:55:47;6.45;;;2.08;;
72649;SDS011;61467;50.674;4.618;2022-07-05T10:58:26;5.37;;;1.70;;
72649;SDS011;61467;50.674;4.618;2022-07-05T11:04:06;7.10;;;2.13;;
72649;SDS011;61467;50.674;4.618;2022-07-05T11:06:39;6.18;;;2.00;;
72649;SDS011;61467;50.674;4.618;2022-07-05T11:09:14;7.10;;;2.17;;
72649;SDS011;61467;50.674;4.618;2022-07-05T11:11:43;5.80;;;1.80;;
72649;SDS011;61467;50.674;4.618;2022-07-05T11:14:29;8.65;;;2.42;;
72649;SDS011;61467;50.674;4.618;2022-07-05T11:17:09;8.18;;;1.92;;
72649;SDS011;61467;50.674;4.618;2022-07-05T11:23:00;6.68;;;2.20;;
72649;SDS011;61467;50.674;4.618;2022-07-05T11:25:29;8.53;;;2.53;;
72649;SDS011;61467;50.674;4.618;2022-07-05T11:30:50;8.02;;;3.00;;
72649;SDS011;61467;50.674;4.618;2022-07-05T11:33:35;7.97;;;2.80;;
72649;SDS011;61467;50.674;4.618;2022-07-05T11:36:05;7.25;;;3.08;;
72649;SDS011;61467;50.674;4.618;2022-07-05T11:38:33;7.47;;;2.73;;
72649;SDS011;61467;50.674;4.618;2022-07-05T11:43:57;7.13;;;2.22;;
72649;SDS011;61467;50.674;4.618;2022-07-05T11:46:24;5.40;;;1.80;;
72649;SDS011;61467;50.674;4.618;2022-07-05T11:48:51;6.50;;;2.20;;
72649;SDS011;61467;50.674;4.618;2022-07-05T11:51:18;6.83;;;2.27;;
72649;SDS011;61467;50.674;4.618;2022-07-05T11:53:46;6.60;;;1.92;;
72649;SDS011;61467;50.674;4.618;2022-07-05T11:56:13;7.40;;;2.83;;
72649;SDS011;61467;50.674;4.618;2022-07-05T11:58:43;7.25;;;1.95;;
72649;SDS011;61467;50.674;4.618;2022-07-05T12:01:11;7.30;;;2.40;;
72649;SDS011;61467;50.674;4.618;2022-07-05T12:03:38;5.07;;;1.63;;
72649;SDS011;61467;50.674;4.618;2022-07-05T12:06:14;7.07;;;2.28;;
72649;SDS011;61467;50.674;4.618;2022-07-05T12:08:42;5.18;;;1.90;;
72649;SDS011;61467;50.674;4.618;2022-07-05T12:11:10;7.10;;;1.80;;
72649;SDS011;61467;50.674;4.618;2022-07-05T12:13:55;6.57;;;1.63;;
72649;SDS011;61467;50.674;4.618;2022-07-05T12:16:23;4.80;;;1.47;;
72649;SDS011;61467;50.674;4.618;2022-07-05T12:18:52;5.93;;;1.70;;
72649;SDS011;61467;50.674;4.618;2022-07-05T12:21:21;9.60;;;2.22;;
72649;SDS011;61467;50.674;4.618;2022-07-05T12:23:50;8.23;;;2.08;;
72649;SDS011;61467;50.674;4.618;2022-07-05T12:26:19;7.25;;;1.88;;
72649;SDS011;61467;50.674;4.618;2022-07-05T12:28:47;5.27;;;1.63;;
72649;SDS011;61467;50.674;4.618;2022-07-05T12:31:17;6.05;;;1.60;;
72649;SDS011;61467;50.674;4.618;2022-07-05T12:33:47;5.90;;;2.05;;
72649;SDS011;61467;50.674;4.618;2022-07-05T12:36:14;6.47;;;1.95;;
72649;SDS011;61467;50.674;4.618;2022-07-05T12:38:42;6.35;;;1.80;;
72649;SDS011;61467;50.674;4.618;2022-07-05T12:41:09;6.70;;;1.90;;
72649;SDS011;61467;50.674;4.618;2022-07-05T12:43:50;6.20;;;1.50;;
72649;SDS011;61467;50.674;4.618;2022-07-05T12:46:34;5.45;;;2.03;;
72649;SDS011;61467;50.674;4.618;2022-07-05T12:49:03;6.78;;;1.52;;
72649;SDS011;61467;50.674;4.618;2022-07-05T12:51:31;5.00;;;1.55;;
72649;SDS011;61467;50.674;4.618;2022-07-05T12:53:59;7.23;;;1.47;;
72649;SDS011;61467;50.674;4.618;2022-07-05T12:56:47;5.57;;;1.40;;
72649;SDS011;61467;50.674;4.618;2022-07-05T12:59:31;6.45;;;1.42;;
72649;SDS011;61467;50.674;4.618;2022-07-05T13:01:58;6.78;;;1.60;;
72649;SDS011;61467;50.674;4.618;2022-07-05T13:04:26;6.03;;;1.67;;
72649;SDS011;61467;50.674;4.618;2022-07-05T13:06:54;6.63;;;1.60;;
72649;SDS011;61467;50.674;4.618;2022-07-05T13:09:32;5.85;;;1.10;;
72649;SDS011;61467;50.674;4.618;2022-07-05T13:12:06;6.68;;;1.70;;
72649;SDS011;61467;50.674;4.618;2022-07-05T13:14:34;9.27;;;1.70;;
72649;SDS011;61467;50.674;4.618;2022-07-05T13:17:02;6.75;;;1.60;;
72649;SDS011;61467;50.674;4.618;2022-07-05T13:19:30;4.27;;;1.37;;
72649;SDS011;61467;50.674;4.618;2022-07-05T13:21:57;7.07;;;1.60;;
72649;SDS011;61467;50.674;4.618;2022-07-05T13:24:24;6.15;;;1.75;;
72649;SDS011;61467;50.674;4.618;2022-07-05T13:26:50;7.35;;;1.58;;
72649;SDS011;61467;50.674;4.618;2022-07-05T13:29:17;7.68;;;1.90;;
72649;SDS011;61467;50.674;4.618;2022-07-05T13:31:44;5.83;;;1.70;;
72649;SDS011;61467;50.674;4.618;2022-07-05T13:34:11;5.45;;;1.55;;
72649;SDS011;61467;50.674;4.618;2022-07-05T13:36:39;5.93;;;1.70;;
72649;SDS011;61467;50.674;4.618;2022-07-05T13:39:05;5.32;;;1.30;;
72649;SDS011;61467;50.674;4.618;2022-07-05T13:41:32;5.32;;;1.40;;
72649;SDS011;61467;50.674;4.618;2022-07-05T13:43:59;6.40;;;1.60;;
72649;SDS011;61467;50.674;4.618;2022-07-05T13:46:26;6.80;;;1.65;;
72649;SDS011;61467;50.674;4.618;2022-07-05T13:48:53;6.03;;;1.90;;
72649;SDS011;61467;50.674;4.618;2022-07-05T13:51:20;7.75;;;1.90;;
72649;SDS011;61467;50.674;4.618;2022-07-05T13:53:48;5.03;;;1.65;;
72649;SDS011;61467;50.674;4.618;2022-07-05T13:56:14;9.13;;;2.00;;
72649;SDS011;61467;50.674;4.618;2022-07-05T13:58:41;7.32;;;2.22;;
72649;SDS011;61467;50.674;4.618;2022-07-05T14:01:08;6.10;;;1.73;;
72649;SDS011;61467;50.674;4.618;2022-07-05T14:03:34;6.00;;;1.92;;
72649;SDS011;61467;50.674;4.618;2022-07-05T14:06:01;7.88;;;2.33;;
72649;SDS011;61467;50.674;4.618;2022-07-05T14:08:28;7.30;;;1.90;;
72649;SDS011;61467;50.674;4.618;2022-07-05T14:10:56;8.48;;;2.60;;
72649;SDS011;61467;50.674;4.618;2022-07-05T14:13:24;7.93;;;2.10;;
72649;SDS011;61467;50.674;4.618;2022-07-05T14:15:52;5.55;;;2.20;;
72649;SDS011;61467;50.674;4.618;2022-07-05T14:18:19;7.50;;;2.60;;
72649;SDS011;61467;50.674;4.618;2022-07-05T14:20:47;6.03;;;1.83;;
72649;SDS011;61467;50.674;4.618;2022-07-05T14:23:14;6.43;;;2.00;;
72649;SDS011;61467;50.674;4.618;2022-07-05T14:25:41;7.72;;;2.38;;
72649;SDS011;61467;50.674;4.618;2022-07-05T14:28:10;6.82;;;1.80;;
72649;SDS011;61467;50.674;4.618;2022-07-05T14:30:37;7.70;;;2.53;;
72649;SDS011;61467;50.674;4.618;2022-07-05T14:33:05;7.63;;;2.00;;
72649;SDS011;61467;50.674;4.618;2022-07-05T14:35:32;5.88;;;2.08;;
72649;SDS011;61467;50.674;4.618;2022-07-05T14:38:00;6.38;;;2.13;;
72649;SDS011;61467;50.674;4.618;2022-07-05T14:40:28;6.05;;;2.08;;
72649;SDS011;61467;50.674;4.618;2022-07-05T14:42:55;7.32;;;1.77;;
72649;SDS011;61467;50.674;4.618;2022-07-05T14:45:25;6.93;;;1.80;;
72649;SDS011;61467;50.674;4.618;2022-07-05T14:47:53;6.63;;;2.13;;
72649;SDS011;61467;50.674;4.618;2022-07-05T14:50:20;6.13;;;1.67;;
72649;SDS011;61467;50.674;4.618;2022-07-05T14:52:47;6.10;;;1.35;;
72649;SDS011;61467;50.674;4.618;2022-07-05T14:55:14;6.25;;;1.90;;
72649;SDS011;61467;50.674;4.618;2022-07-05T14:57:42;5.73;;;1.93;;
72649;SDS011;61467;50.674;4.618;2022-07-05T15:00:09;6.13;;;1.60;;
72649;SDS011;61467;50.674;4.618;2022-07-05T15:02:38;7.15;;;1.67;;
72649;SDS011;61467;50.674;4.618;2022-07-05T15:05:05;5.50;;;1.42;;
72649;SDS011;61467;50.674;4.618;2022-07-05T15:07:35;6.00;;;1.73;;
72649;SDS011;61467;50.674;4.618;2022-07-05T15:10:01;6.80;;;1.63;;